createdAt,value
2016-04-11T00:00:16.537Z,77.17
2016-04-11T00:01:16.429Z,77.12
2016-04-11T00:02:16.542Z,77.12
2016-04-11T00:03:16.545Z,76.84
2016-04-11T00:04:16.547Z,76.84
2016-04-11T00:05:16.550Z,77.31
2016-04-11T00:06:16.552Z,76.84
2016-04-11T00:07:16.540Z,77.12
2016-04-11T00:08:16.558Z,76.75
2016-04-11T00:09:16.545Z,76.75
2016-04-11T00:10:16.564Z,77.12
2016-04-11T00:11:16.785Z,76.65
2016-04-11T00:12:16.553Z,76.75
2016-04-11T00:13:17.008Z,76.84
2016-04-11T00:14:16.542Z,76.93
2016-04-11T00:15:16.546Z,77.12
2016-04-11T00:16:16.549Z,77.12
2016-04-11T00:17:16.551Z,77.03
2016-04-11T00:18:16.554Z,76.93
2016-04-11T00:19:16.557Z,77.31
2016-04-11T00:20:16.560Z,76.75
2016-04-11T00:21:16.750Z,76.75
2016-04-11T00:22:30.675Z,76.93
2016-04-11T00:23:16.553Z,77.12
2016-04-11T00:24:16.570Z,77.12
2016-04-11T00:25:16.558Z,77.03
2016-04-11T00:26:16.607Z,76.93
2016-04-11T00:27:16.797Z,76.93
2016-04-11T00:28:16.410Z,76.37
2016-04-11T00:29:16.600Z,76.56
2016-04-11T00:30:16.602Z,76.27
2016-04-11T00:31:16.574Z,76.27
2016-04-11T00:32:16.577Z,76.75
2016-04-11T00:33:16.589Z,76.46
2016-04-11T00:34:16.567Z,76.46
2016-04-11T00:35:16.773Z,76.37
2016-04-11T00:36:16.593Z,76.37
2016-04-11T00:37:16.564Z,76.65
2016-04-11T00:38:16.567Z,76.37
2016-04-11T00:39:16.570Z,76.37
2016-04-11T00:40:16.588Z,76.37
2016-04-11T00:41:16.575Z,76.46
2016-04-11T00:42:16.593Z,76.56
2016-04-11T00:43:16.580Z,76.08
2016-04-11T00:44:16.755Z,76.65
2016-04-11T00:45:16.774Z,76.37
2016-04-11T00:46:16.557Z,76.27
2016-04-11T00:47:16.607Z,76.46
2016-04-11T00:48:16.563Z,76.46
2016-04-11T00:49:16.582Z,76.37
2016-04-11T00:50:16.568Z,76.37
2016-04-11T00:51:16.571Z,75.99
2016-04-11T00:52:16.574Z,75.6
2016-04-11T00:53:16.577Z,75.99
2016-04-11T00:54:16.579Z,76.18
2016-04-11T00:55:16.598Z,76.08
2016-04-11T00:56:16.787Z,75.7
2016-04-11T00:57:30.712Z,75.7
2016-04-11T00:58:30.668Z,75.51
2016-04-11T01:00:30.673Z,75.51
2016-04-11T01:01:16.645Z,75.64
2016-04-11T01:02:16.835Z,75.55
2016-04-11T01:03:16.619Z,75.99
2016-04-11T01:04:16.590Z,76.21
2016-04-11T01:05:16.577Z,75.6
2016-04-11T01:06:16.596Z,75.74
2016-04-11T01:07:16.583Z,75.55
2016-04-11T01:08:16.617Z,75.79
2016-04-11T01:09:16.792Z,75.99
2016-04-11T01:10:16.611Z,75.45
2016-04-11T01:11:16.583Z,75.89
2016-04-11T01:12:16.601Z,75.6
2016-04-11T01:13:16.604Z,75.84
2016-04-11T01:14:16.591Z,75.55
2016-04-11T01:15:16.828Z,75.7
2016-04-11T01:16:16.597Z,75.6
2016-04-11T01:17:16.599Z,75.79
2016-04-11T01:18:16.602Z,75.6
2016-04-11T01:19:16.604Z,75.79
2016-04-11T01:20:16.607Z,75.55
2016-04-11T01:21:16.595Z,75.7
2016-04-11T01:22:16.597Z,75.6
2016-04-11T01:23:16.600Z,75.7
2016-04-11T01:24:16.617Z,75.51
2016-04-11T01:25:16.620Z,75.42
2016-04-11T01:26:16.608Z,75.51
2016-04-11T01:27:16.626Z,75.6
2016-04-11T01:28:16.613Z,75.42
2016-04-11T01:29:16.834Z,75.36
2016-04-11T01:30:16.619Z,75.6
2016-04-11T01:31:16.152Z,75.32
2016-04-11T01:32:16.639Z,75.42
2016-04-11T01:33:16.658Z,75.51
2016-04-11T01:34:16.614Z,75.23
2016-04-11T01:35:30.710Z,75.7
2016-04-11T01:36:16.619Z,75.89
2016-04-11T01:37:16.168Z,75.51
2016-04-11T01:38:16.624Z,75.42
2016-04-11T01:39:16.627Z,75.32
2016-04-11T01:40:16.629Z,75.64
2016-04-11T01:41:16.633Z,75.7
2016-04-11T01:42:16.838Z,75.79
2016-04-11T01:43:16.622Z,75.79
2016-04-11T01:44:16.624Z,75.23
2016-04-11T01:45:16.627Z,75.51
2016-04-11T01:46:16.849Z,76.08
2016-04-11T01:47:16.633Z,75.89
2016-04-11T01:48:16.635Z,75.89
2016-04-11T01:51:16.878Z,75.79
2016-04-11T01:52:16.646Z,75.79
2016-04-11T01:53:30.727Z,75.79
2016-04-11T01:54:16.199Z,75.7
2016-04-11T01:55:16.654Z,75.7
2016-04-11T01:56:16.657Z,75.42
2016-04-11T01:57:16.659Z,75.42
2016-04-11T01:58:16.647Z,75.23
2016-04-11T01:59:16.837Z,75.32
2016-04-11T02:00:16.636Z,75.32
2016-04-11T02:01:16.639Z,75.51
2016-04-11T02:02:16.641Z,75.7
2016-04-11T02:03:16.847Z,75.23
2016-04-11T02:04:16.663Z,75.79
2016-04-11T02:05:16.650Z,75.7
2016-04-11T02:06:16.668Z,75.32
2016-04-11T02:07:16.672Z,75.79
2016-04-11T02:08:16.658Z,75.6
2016-04-11T02:09:16.661Z,75.42
2016-04-11T02:10:16.694Z,75.42
2016-04-11T02:11:16.650Z,75.32
2016-04-11T02:12:16.716Z,75.79
2016-04-11T02:13:16.671Z,75.51
2016-04-11T02:14:16.658Z,75.89
2016-04-11T02:15:16.692Z,75.79
2016-04-11T02:16:17.477Z,75.42
2016-04-11T02:17:16.666Z,75.79
2016-04-11T02:18:16.669Z,75.79
2016-04-11T02:19:16.671Z,75.51
2016-04-11T02:20:16.863Z,75.23
2016-04-11T02:21:16.662Z,75.89
2016-04-11T02:22:16.664Z,75.6
2016-04-11T02:23:16.698Z,75.6
2016-04-11T02:24:16.670Z,75.6
2016-04-11T02:25:16.876Z,75.7
2016-04-11T02:26:16.894Z,75.6
2016-04-11T02:27:16.709Z,76.08
2016-04-11T02:28:16.664Z,75.7
2016-04-11T02:29:16.667Z,75.79
2016-04-11T02:30:16.686Z,75.42
2016-04-11T02:31:16.673Z,75.51
2016-04-11T02:32:16.675Z,75.32
2016-04-11T02:33:16.679Z,75.7
2016-04-11T02:34:16.681Z,75.79
2016-04-11T02:35:16.684Z,75.51
2016-04-11T02:36:16.874Z,75.23
2016-04-11T02:37:16.689Z,75.23
2016-04-11T02:38:16.895Z,75.51
2016-04-11T02:39:16.726Z,75.79
2016-04-11T02:40:16.697Z,75.79
2016-04-11T02:41:16.544Z,75.6
2016-04-11T02:42:16.921Z,76.18
2016-04-11T02:45:16.695Z,75.79
2016-04-11T02:46:16.698Z,75.6
2016-04-11T02:47:16.685Z,75.89
2016-04-11T02:48:16.688Z,75.6
2016-04-11T02:49:16.893Z,75.89
2016-04-11T02:50:16.676Z,75.6
2016-04-11T02:51:30.789Z,75.7
2016-04-11T02:52:16.901Z,75.89
2016-04-11T02:53:16.685Z,75.7
2016-04-11T02:54:16.687Z,75.99
2016-04-11T02:55:16.690Z,75.79
2016-04-11T02:56:16.692Z,76.37
2016-04-11T02:57:16.962Z,76.18
2016-04-11T02:58:16.730Z,76.23
2016-04-11T02:59:16.701Z,76.04
2016-04-11T03:00:16.892Z,76.14
2016-04-11T03:01:16.926Z,76.32
2016-04-11T03:02:16.694Z,76.23
2016-04-11T03:03:16.696Z,76.14
2016-04-11T03:04:16.699Z,76.46
2016-04-11T03:05:16.702Z,76.23
2016-04-11T03:06:16.705Z,76.32
2016-04-11T03:07:16.707Z,76.32
2016-04-11T03:08:16.694Z,76.75
2016-04-11T03:09:16.712Z,76.52
2016-04-11T03:10:16.715Z,76.61
2016-04-11T03:11:16.702Z,76.61
2016-04-11T03:12:16.971Z,76.32
2016-04-11T03:13:16.707Z,76.23
2016-04-11T03:14:30.805Z,76.46
2016-04-11T03:15:16.713Z,76.32
2016-04-11T03:16:16.716Z,76.71
2016-04-11T03:17:16.702Z,76.99
2016-04-11T03:18:16.721Z,76.61
2016-04-11T03:19:16.708Z,76.84
2016-04-11T03:20:16.710Z,76.65
2016-04-11T03:21:16.729Z,76.84
2016-04-11T03:22:16.716Z,77.31
2016-04-11T03:23:16.718Z,76.75
2016-04-11T03:24:16.909Z,77.03
2016-04-11T03:25:16.724Z,77.31
2016-04-11T03:26:16.726Z,77.31
2016-04-11T03:27:30.808Z,76.75
2016-04-11T03:28:16.717Z,76.65
2016-04-11T03:29:16.720Z,76.75
2016-04-11T03:31:16.709Z,77.12
2016-04-11T03:32:16.711Z,76.84
2016-04-11T03:33:16.730Z,76.65
2016-04-11T03:34:16.717Z,76.37
2016-04-11T03:35:16.720Z,76.65
2016-04-11T03:36:16.722Z,76.75
2016-04-11T03:37:16.741Z,76.56
2016-04-11T03:38:17.118Z,76.27
2016-04-11T03:39:16.919Z,76.46
2016-04-11T03:40:16.718Z,76.56
2016-04-11T03:41:16.736Z,76.37
2016-04-11T03:42:16.755Z,76.56
2016-04-11T03:43:16.727Z,76.56
2016-04-11T03:44:16.729Z,76.46
2016-04-11T03:45:16.778Z,76.37
2016-04-11T03:46:16.734Z,76.37
2016-04-11T03:47:16.721Z,76.46
2016-04-11T03:48:16.724Z,76.46
2016-04-11T03:49:16.743Z,76.27
2016-04-11T03:50:16.729Z,76.37
2016-04-11T03:51:16.732Z,76.37
2016-04-11T03:52:16.750Z,76.37
2016-04-11T03:53:16.721Z,76.27
2016-04-11T03:54:16.740Z,76.27
2016-04-11T03:55:16.726Z,76.27
2016-04-11T03:56:16.729Z,76.27
2016-04-11T03:57:16.748Z,76.46
2016-04-11T03:58:16.751Z,76.37
2016-04-11T03:59:16.722Z,76.46
2016-04-11T04:00:16.787Z,76.93
2016-04-11T04:01:16.930Z,76.37
2016-04-11T04:03:16.733Z,76.84
2016-04-11T04:04:16.736Z,76.56
2016-04-11T04:05:16.738Z,76.46
2016-04-11T04:06:23.006Z,76.37
2016-04-11T04:07:16.727Z,77.12
2016-04-11T04:08:16.747Z,76.75
2016-04-11T04:09:16.733Z,76.56
2016-04-11T04:10:16.939Z,76.56
2016-04-11T04:11:17.160Z,76.46
2016-04-11T04:12:16.742Z,76.37
2016-04-11T04:13:16.760Z,76.27
2016-04-11T04:14:16.747Z,76.65
2016-04-11T04:15:16.749Z,76.46
2016-04-11T04:16:16.752Z,76.56
2016-04-11T04:17:16.739Z,76.37
2016-04-11T04:18:16.946Z,76.46
2016-04-11T04:19:16.744Z,76.18
2016-04-11T04:20:16.763Z,76.65
2016-04-11T04:21:16.749Z,76.46
2016-04-11T04:22:16.752Z,76.37
2016-04-11T04:23:16.974Z,77.03
2016-04-11T04:24:16.791Z,76.46
2016-04-11T04:25:16.837Z,76.56
2016-04-11T04:26:17.072Z,76.56
2016-04-11T04:27:16.915Z,77.03
2016-04-11T04:28:16.977Z,76.65
2016-04-11T04:29:17.002Z,76.65
2016-04-11T04:30:16.989Z,76.37
2016-04-11T04:31:17.023Z,76.84
2016-04-11T04:32:17.043Z,76.84
2016-04-11T04:33:17.045Z,77.31
2016-04-11T04:34:17.071Z,76.75
2016-04-11T04:35:17.063Z,77.12
2016-04-11T04:36:17.072Z,76.56
2016-04-11T04:37:17.269Z,76.37
2016-04-11T04:38:17.105Z,76.37
2016-04-11T04:39:17.080Z,76.93
2016-04-11T04:40:17.084Z,76.56
2016-04-11T04:41:17.089Z,76.93
2016-04-11T04:42:17.094Z,76.56
2016-04-11T04:43:17.098Z,76.46
2016-04-11T04:44:17.102Z,76.65
2016-04-11T04:45:17.120Z,76.56
2016-04-11T04:46:17.108Z,76.65
2016-04-11T04:47:17.096Z,76.56
2016-04-11T04:48:17.116Z,76.56
2016-04-11T04:49:17.540Z,76.84
2016-04-11T04:50:17.106Z,76.56
2016-04-11T04:51:17.109Z,76.56
2016-04-11T04:52:17.143Z,77.12
2016-04-11T04:53:31.412Z,77.03
2016-04-11T04:54:16.649Z,76.93
2016-04-11T04:55:17.104Z,76.75
2016-04-11T04:56:17.107Z,76.75
2016-04-11T04:57:17.142Z,76.93
2016-04-11T04:58:17.113Z,76.75
2016-04-11T04:59:17.100Z,76.65
2016-04-11T05:00:17.118Z,76.46
2016-04-11T05:01:17.105Z,76.65
2016-04-11T05:02:17.124Z,76.46
2016-04-11T05:03:17.142Z,76.75
2016-04-11T05:04:17.129Z,76.46
2016-04-11T05:05:17.117Z,76.75
2016-04-11T05:06:17.134Z,76.56
2016-04-11T05:07:17.169Z,76.75
2016-04-11T05:08:17.124Z,76.93
2016-04-11T05:09:17.314Z,76.75
2016-04-11T05:10:17.348Z,76.56
2016-04-11T05:11:17.117Z,76.93
2016-04-11T05:12:17.119Z,77.12
2016-04-11T05:13:17.122Z,76.84
2016-04-11T05:14:17.140Z,76.75
2016-04-11T05:15:17.127Z,77.03
2016-04-11T05:16:17.130Z,76.65
2016-04-11T05:17:17.133Z,76.93
2016-04-11T05:18:17.135Z,77.31
2016-04-11T05:19:17.169Z,76.75
2016-04-11T05:20:17.125Z,76.37
2016-04-11T05:21:17.127Z,76.65
2016-04-11T05:23:17.118Z,76.37
2016-04-11T05:24:17.135Z,76.37
2016-04-11T05:25:17.138Z,76.18
2016-04-11T05:26:17.157Z,76.27
2016-04-11T05:27:17.129Z,75.99
2016-04-11T05:28:17.163Z,76.27
2016-04-11T05:29:17.134Z,76.56
2016-04-11T05:30:17.137Z,76.18
2016-04-11T05:31:17.326Z,76.56
2016-04-11T05:32:17.142Z,76.46
2016-04-11T05:33:17.145Z,76.56
2016-04-11T05:34:17.131Z,76.27
2016-04-11T05:35:17.150Z,76.56
2016-04-11T05:36:17.153Z,76.18
2016-04-11T05:37:17.139Z,75.7
2016-04-11T05:38:17.142Z,76.08
2016-04-11T05:39:17.161Z,76.27
2016-04-11T05:40:17.350Z,76.37
2016-04-11T05:41:17.181Z,76.27
2016-04-11T05:42:17.139Z,76.18
2016-04-11T05:43:17.187Z,75.79
2016-04-11T05:44:17.175Z,76.18
2016-04-11T05:45:17.349Z,75.89
2016-04-11T05:46:17.133Z,76.37
2016-04-11T05:47:17.152Z,76.18
2016-04-11T05:48:17.154Z,76.65
2016-04-11T05:49:17.157Z,76.18
2016-04-11T05:51:17.365Z,76.08
2016-04-11T05:52:17.149Z,76.08
2016-04-11T05:53:17.168Z,76.08
2016-04-11T05:54:17.170Z,76.08
2016-04-11T05:55:17.157Z,76.4
2016-04-11T05:56:17.160Z,76.03
2016-04-11T05:57:17.179Z,75.64
2016-04-11T05:58:17.165Z,75.74
2016-04-11T05:59:17.168Z,75.93
2016-04-11T06:00:17.171Z,75.74
2016-04-11T06:01:17.157Z,76.03
2016-04-11T06:02:17.160Z,75.93
2016-04-11T06:03:17.162Z,75.93
2016-04-11T06:04:17.181Z,76.12
2016-04-11T06:05:17.168Z,75.74
2016-04-11T06:06:17.203Z,75.36
2016-04-11T06:07:17.189Z,75.26
2016-04-11T06:08:17.380Z,75.84
2016-04-11T06:09:17.178Z,75.17
2016-04-11T06:10:17.166Z,74.98
2016-04-11T06:11:17.184Z,75.26
2016-04-11T06:12:17.187Z,75.36
2016-04-11T06:13:17.174Z,75.64
2016-04-11T06:14:17.177Z,75.36
2016-04-11T06:16:17.183Z,75.17
2016-04-11T06:17:17.389Z,74.98
2016-04-11T06:18:17.188Z,75.74
2016-04-11T06:19:17.221Z,75.17
2016-04-11T06:20:17.194Z,75.36
2016-04-11T06:21:17.196Z,75.74
2016-04-11T06:22:17.198Z,75.07
2016-04-11T06:23:17.233Z,75.17
2016-04-11T06:24:17.610Z,75.36
2016-04-11T06:25:17.269Z,74.98
2016-04-11T06:26:17.210Z,74.98
2016-04-11T06:27:17.196Z,74.69
2016-04-11T06:28:17.215Z,74.98
2016-04-11T06:29:17.452Z,74.6
2016-04-11T06:30:17.282Z,74.88
2016-04-11T06:31:17.207Z,74.88
2016-04-11T06:32:17.226Z,74.41
2016-04-11T06:33:17.213Z,74.41
2016-04-11T06:34:17.387Z,74.41
2016-04-11T06:35:17.264Z,74.88
2016-04-11T06:36:17.221Z,74.79
2016-04-11T06:37:16.770Z,74.79
2016-04-11T06:38:17.225Z,74.82
2016-04-11T06:39:17.338Z,74.79
2016-04-11T06:40:17.294Z,74.82
2016-04-11T06:41:17.234Z,74.82
2016-04-11T06:42:17.237Z,74.82
2016-04-11T06:43:17.442Z,74.82
2016-04-11T06:44:17.242Z,74.82
2016-04-11T06:45:17.245Z,74.92
2016-04-11T06:46:17.247Z,74.92
2016-04-11T06:47:17.250Z,74.92
2016-04-11T06:48:17.284Z,74.82
2016-04-11T06:49:17.303Z,74.92
2016-04-11T06:50:17.571Z,74.63
2016-04-11T06:51:17.619Z,74.63
2016-04-11T06:52:17.858Z,74.44
2016-04-11T06:53:17.188Z,74.35
2016-04-11T06:54:17.627Z,74.44
2016-04-11T06:55:17.772Z,74.54
2016-04-11T06:56:17.805Z,74.16
2016-04-11T06:57:17.340Z,73.69
2016-04-11T06:58:17.327Z,73.59
2016-04-11T06:59:17.329Z,73.88
2016-04-11T07:00:17.785Z,73.4
2016-04-11T07:01:17.287Z,73.02
2016-04-11T07:02:17.681Z,73.11
2016-04-11T07:03:31.465Z,72.96
2016-04-11T07:04:17.296Z,72.96
2016-04-11T07:05:17.455Z,73.34
2016-04-11T07:06:17.332Z,73.25
2016-04-11T07:07:17.304Z,73.44
2016-04-11T07:08:17.307Z,73.06
2016-04-11T07:09:17.309Z,73.15
2016-04-11T07:10:17.312Z,72.77
2016-04-11T07:11:17.330Z,72.77
2016-04-11T07:12:17.333Z,72.39
2016-04-11T07:13:17.523Z,72.39
2016-04-11T07:14:17.322Z,72.49
2016-04-11T07:15:17.325Z,72.3
2016-04-11T07:16:17.328Z,72.58
2016-04-11T07:17:17.362Z,72.39
2016-04-11T07:18:17.350Z,72.01
2016-04-11T07:19:17.539Z,72.2
2016-04-11T07:20:17.339Z,72.49
2016-04-11T07:21:17.357Z,72.49
2016-04-11T07:22:17.563Z,72.77
2016-04-11T07:23:17.347Z,72.49
2016-04-11T07:24:17.568Z,72.01
2016-04-11T07:25:17.354Z,72.58
2016-04-11T07:26:17.373Z,72.39
2016-04-11T07:27:17.782Z,72.42
2016-04-11T07:28:17.378Z,72.33
2016-04-11T07:29:17.396Z,72.33
2016-04-11T07:30:20.383Z,72.33
2016-04-11T07:31:31.479Z,72.14
2016-04-11T07:32:17.405Z,72.14
2016-04-11T07:33:20.595Z,71.47
2016-04-11T07:34:17.394Z,71.47
2016-04-11T07:35:17.631Z,70.72
2016-04-11T07:36:17.415Z,70.72
2016-04-11T07:37:17.417Z,71.28
2016-04-11T07:38:17.405Z,71.09
2016-04-11T07:39:17.423Z,70.52
2016-04-11T07:40:17.442Z,70.81
2016-04-11T07:41:17.444Z,71.28
2016-04-11T07:43:17.669Z,70.84
2016-04-11T07:44:17.436Z,70.65
2016-04-11T07:45:17.439Z,70.65
2016-04-11T07:46:17.458Z,69.89
2016-04-11T07:47:17.444Z,69.32
2016-04-11T07:48:17.464Z,69.23
2016-04-11T07:49:17.466Z,69.23
2016-04-11T07:50:17.703Z,69.04
2016-04-11T07:51:17.471Z,68.46
2016-04-11T07:52:17.473Z,69.13
2016-04-11T07:53:17.492Z,69.32
2016-04-11T07:54:17.494Z,69.51
2016-04-11T07:55:17.497Z,69.23
2016-04-11T07:56:17.516Z,68.75
2016-04-11T07:57:17.549Z,69.42
2016-04-11T07:58:17.521Z,69.51
2016-04-11T07:59:17.508Z,69.7
2016-04-11T08:00:17.510Z,69.51
2016-04-11T08:01:17.529Z,69.7
2016-04-11T08:02:17.532Z,69.04
2016-04-11T08:03:17.723Z,69.04
2016-04-11T08:04:17.553Z,69.32
2016-04-11T08:05:17.540Z,69.23
2016-04-11T08:07:17.545Z,68.56
2016-04-11T08:08:17.564Z,68.69
2016-04-11T08:09:17.571Z,68.69
2016-04-11T08:10:17.575Z,67.74
2016-04-11T08:11:17.577Z,67.74
2016-04-11T08:12:17.594Z,68.3
2016-04-11T08:13:17.722Z,68.21
2016-04-11T08:14:17.600Z,66.02
2016-04-11T08:15:17.588Z,67.35
2016-04-11T08:16:17.605Z,67.35
2016-04-11T08:17:17.608Z,67.74
2016-04-11T08:18:17.632Z,67.64
2016-04-11T08:19:17.649Z,67.26
2016-04-11T08:20:17.653Z,67.74
2016-04-11T08:21:31.718Z,68.12
2016-04-11T08:22:17.642Z,68.12
2016-04-11T08:23:17.879Z,68.02
2016-04-11T08:24:17.647Z,68.12
2016-04-11T08:25:17.651Z,67.86
2016-04-11T08:26:17.653Z,68.3
2016-04-11T08:27:17.671Z,68.15
2016-04-11T08:28:18.174Z,68.15
2016-04-11T08:29:17.520Z,68.05
2016-04-11T08:30:17.695Z,67.86
2016-04-11T08:31:17.917Z,67.68
2016-04-11T08:32:17.935Z,68.05
2016-04-11T08:33:17.703Z,67.77
2016-04-11T08:34:17.722Z,68.15
2016-04-11T08:35:17.912Z,67.77
2016-04-11T08:36:17.773Z,68.05
2016-04-11T08:37:17.714Z,68.15
2016-04-11T08:38:17.748Z,68.34
2016-04-11T08:39:17.766Z,68.15
2016-04-11T08:40:17.753Z,67.96
2016-04-11T08:41:18.006Z,67.58
2016-04-11T08:42:17.758Z,67.29
2016-04-11T08:43:17.855Z,67.2
2016-04-11T08:44:17.764Z,67.29
2016-04-11T08:45:17.782Z,67.29
2016-04-11T08:46:18.035Z,67.39
2016-04-11T08:47:17.788Z,67
2016-04-11T08:48:17.790Z,67.2
2016-04-11T08:49:17.808Z,66.94
2016-04-11T08:50:17.827Z,66.44
2016-04-11T08:51:17.814Z,65.96
2016-04-11T08:52:17.832Z,65.67
2016-04-11T08:53:17.834Z,65.96
2016-04-11T08:54:17.838Z,67
2016-04-11T08:55:17.856Z,67.29
2016-04-11T08:56:17.843Z,67.2
2016-04-11T08:57:17.892Z,67.1
2016-04-11T08:58:17.895Z,66.82
2016-04-11T08:59:17.898Z,66.15
2016-04-11T09:00:17.869Z,65.96
2016-04-11T09:01:17.873Z,66.34
2016-04-11T09:02:17.875Z,65.96
2016-04-11T09:03:17.893Z,66.72
2016-04-11T09:04:17.895Z,66.91
2016-04-11T09:05:17.898Z,66.82
2016-04-11T09:06:17.917Z,65.96
2016-04-11T09:07:17.950Z,66.44
2016-04-11T09:08:17.938Z,67
2016-04-11T09:09:17.941Z,66.63
2016-04-11T09:10:17.944Z,66.53
2016-04-11T09:11:17.946Z,66.53
2016-04-11T09:12:17.964Z,65.86
2016-04-11T09:13:18.061Z,66.34
2016-04-11T09:14:17.969Z,66.63
2016-04-11T09:15:17.972Z,66.53
2016-04-11T09:16:18.022Z,66.24
2016-04-11T09:17:17.977Z,65.96
2016-04-11T09:18:17.996Z,66.63
2016-04-11T09:19:17.999Z,66.72
2016-04-11T09:20:18.001Z,66.47
2016-04-11T09:21:18.051Z,65.52
2016-04-11T09:22:18.007Z,65.42
2016-04-11T09:23:18.057Z,65.61
2016-04-11T09:24:18.027Z,66.09
2016-04-11T09:25:17.577Z,65.89
2016-04-11T09:26:18.049Z,65.04
2016-04-11T09:27:18.051Z,65.52
2016-04-11T09:28:17.663Z,65.8
2016-04-11T09:29:17.604Z,66.47
2016-04-11T09:30:18.279Z,65.42
2016-04-11T09:31:18.078Z,65.26
2016-04-11T09:32:18.096Z,65.07
2016-04-11T09:33:18.130Z,65.17
2016-04-11T09:34:18.133Z,65.45
2016-04-11T09:35:18.120Z,64.12
2016-04-11T09:36:18.123Z,64.02
2016-04-11T09:37:18.172Z,62.59
2016-04-11T09:38:18.159Z,64.25
2016-04-11T09:39:18.147Z,62.91
2016-04-11T09:40:18.164Z,62.91
2016-04-11T09:41:18.167Z,63.1
2016-04-11T09:42:18.216Z,62.24
2016-04-11T09:43:18.376Z,62.34
2016-04-11T09:44:18.222Z,62.15
2016-04-11T09:45:18.193Z,62.24
2016-04-11T09:46:18.211Z,62.05
2016-04-11T09:47:18.199Z,62.15
2016-04-11T09:48:18.217Z,62.52
2016-04-11T09:49:18.220Z,61.66
2016-04-11T09:50:18.222Z,61.95
2016-04-11T09:51:18.257Z,62.24
2016-04-11T09:52:18.244Z,62.52
2016-04-11T09:53:18.262Z,61.86
2016-04-11T09:54:18.265Z,62.24
2016-04-11T09:55:18.298Z,63.2
2016-04-11T09:56:18.318Z,63.39
2016-04-11T09:57:18.288Z,62.81
2016-04-11T09:58:18.525Z,63.29
2016-04-11T09:59:18.309Z,61.86
2016-04-11T10:00:17.843Z,62.34
2016-04-11T10:01:18.331Z,61.66
2016-04-11T10:02:18.567Z,61
2016-04-11T10:03:18.554Z,59.85
2016-04-11T10:05:18.357Z,60.14
2016-04-11T10:06:18.562Z,60.71
2016-04-11T10:07:18.378Z,60.04
2016-04-11T10:08:18.380Z,60.9
2016-04-11T10:09:18.431Z,60.61
2016-04-11T10:10:18.386Z,60.42
2016-04-11T10:11:18.420Z,61.29
2016-04-11T10:12:18.422Z,61.76
2016-04-11T10:13:18.425Z,60.33
2016-04-11T10:15:18.446Z,61.57
2016-04-11T10:16:18.449Z,61.47
2016-04-11T10:17:18.482Z,61.95
2016-04-11T10:19:18.472Z,61.95
2016-04-11T10:20:18.475Z,61.95
2016-04-11T10:21:18.696Z,61.19
2016-04-11T10:22:18.699Z,61.66
2016-04-11T10:23:18.499Z,61.47
2016-04-11T10:24:18.517Z,61.57
2016-04-11T10:25:18.535Z,60.71
2016-04-11T10:26:18.538Z,60.9
2016-04-11T10:27:18.806Z,60.81
2016-04-11T10:28:18.544Z,60.71
2016-04-11T10:29:18.562Z,60.71
2016-04-11T10:30:18.565Z,61.19
2016-04-11T10:31:18.567Z,61.29
2016-04-11T10:32:18.585Z,61.47
2016-04-11T10:33:18.588Z,61.66
2016-04-11T10:34:18.591Z,61.95
2016-04-11T10:35:18.609Z,61.76
2016-04-11T10:36:18.612Z,61.29
2016-04-11T10:37:18.630Z,61.1
2016-04-11T10:38:18.617Z,61.38
2016-04-11T10:39:18.651Z,61.38
2016-04-11T10:40:18.857Z,61.69
2016-04-11T10:41:18.703Z,61.98
2016-04-11T10:42:18.659Z,62.08
2016-04-11T10:43:18.678Z,62.46
2016-04-11T10:44:18.680Z,62.46
2016-04-11T10:45:18.699Z,62.65
2016-04-11T10:46:18.702Z,62.55
2016-04-11T10:47:18.719Z,61.98
2016-04-11T10:48:18.707Z,61.98
2016-04-11T10:49:18.913Z,61.98
2016-04-11T10:50:18.727Z,61.51
2016-04-11T10:51:18.761Z,61.13
2016-04-11T10:52:18.749Z,61.41
2016-04-11T10:53:18.799Z,61.32
2016-04-11T10:54:18.801Z,61.51
2016-04-11T10:55:18.772Z,62.18
2016-04-11T10:56:18.790Z,61.69
2016-04-11T10:57:18.825Z,61.79
2016-04-11T10:58:18.796Z,60.27
2016-04-11T10:59:18.846Z,60.46
2016-04-11T11:00:18.817Z,59.59
2016-04-11T11:01:18.820Z,60.17
2016-04-11T11:02:18.837Z,60.17
2016-04-11T11:03:18.841Z,60.55
2016-04-11T11:04:18.844Z,61.22
2016-04-11T11:05:19.159Z,61.79
2016-04-11T11:06:18.864Z,61.98
2016-04-11T11:07:18.914Z,61.51
2016-04-11T11:08:18.885Z,61.89
2016-04-11T11:10:19.142Z,62.46
2016-04-11T11:11:19.112Z,62.27
2016-04-11T11:12:18.911Z,62.46
2016-04-11T11:13:18.946Z,62.37
2016-04-11T11:14:18.933Z,62.27
2016-04-11T11:15:18.951Z,62.55
2016-04-11T11:16:18.953Z,62.65
2016-04-11T11:17:18.957Z,62.27
2016-04-11T11:18:19.178Z,62.08
2016-04-11T11:19:18.977Z,62.08
2016-04-11T11:20:18.980Z,61.89
2016-04-11T11:21:18.983Z,61.79
2016-04-11T11:22:19.204Z,61.86
2016-04-11T11:23:19.019Z,62.15
2016-04-11T11:24:19.257Z,61.66
2016-04-11T11:25:19.228Z,62.05
2016-04-11T11:26:19.027Z,61.86
2016-04-11T11:27:19.046Z,62.34
2016-04-11T11:28:19.049Z,62.43
2016-04-11T11:29:19.068Z,62.24
2016-04-11T11:30:19.257Z,62.05
2016-04-11T11:31:19.073Z,62.24
2016-04-11T11:32:19.106Z,62.24
2016-04-11T11:33:19.078Z,62.43
2016-04-11T11:34:19.095Z,62.62
2016-04-11T11:35:19.098Z,63.1
2016-04-11T11:36:19.336Z,62.81
2016-04-11T11:37:19.120Z,62.81
2016-04-11T11:38:19.138Z,63.07
2016-04-11T11:39:19.140Z,63.83
2016-04-11T11:40:19.159Z,63.54
2016-04-11T11:41:19.162Z,64.02
2016-04-11T11:42:19.148Z,63.92
2016-04-11T11:43:19.167Z,64.69
2016-04-11T11:44:19.201Z,64.5
2016-04-11T11:45:19.189Z,64.4
2016-04-11T11:46:19.175Z,63.73
2016-04-11T11:47:19.194Z,64.5
2016-04-11T11:48:19.197Z,64.43
2016-04-11T11:49:19.214Z,63.83
2016-04-11T11:50:19.217Z,64.02
2016-04-11T11:51:19.219Z,64.4
2016-04-11T11:52:18.770Z,64.59
2016-04-11T11:53:19.350Z,63.64
2016-04-11T11:54:19.447Z,63.73
2016-04-11T11:55:19.246Z,64.25
2016-04-11T11:56:19.249Z,64.53
2016-04-11T11:58:19.270Z,64.31
2016-04-11T11:59:19.273Z,64.5
2016-04-11T12:00:19.275Z,64.5
2016-04-11T12:01:19.294Z,63.76
2016-04-11T12:02:19.296Z,64.05
2016-04-11T12:03:19.314Z,63.92
2016-04-11T12:04:19.318Z,64.21
2016-04-11T12:05:19.321Z,64.31
2016-04-11T12:06:19.338Z,63.86
2016-04-11T12:07:19.340Z,63.96
2016-04-11T12:08:19.344Z,64.53
2016-04-11T12:09:19.361Z,63.83
2016-04-11T12:10:19.365Z,63.92
2016-04-11T12:11:19.367Z,64.62
2016-04-11T12:12:19.370Z,64.21
2016-04-11T12:13:19.389Z,64.31
2016-04-11T12:14:19.407Z,64.5
2016-04-11T12:15:19.394Z,64.69
2016-04-11T12:16:19.411Z,65.2
2016-04-11T12:17:19.603Z,64.34
2016-04-11T12:18:19.433Z,64.25
2016-04-11T12:19:19.452Z,64.43
2016-04-11T12:20:19.422Z,64.34
2016-04-11T12:21:19.441Z,64.53
2016-04-11T12:22:19.475Z,64.62
2016-04-11T12:23:19.447Z,65.39
2016-04-11T12:24:19.449Z,65.48
2016-04-11T12:25:19.468Z,64.34
2016-04-11T12:26:19.486Z,64.62
2016-04-11T12:27:19.488Z,64.72
2016-04-11T12:28:19.491Z,64.34
2016-04-11T12:29:19.509Z,64.53
2016-04-11T12:31:19.530Z,64.34
2016-04-11T12:32:19.502Z,64.43
2016-04-11T12:33:19.535Z,64.43
2016-04-11T12:34:19.570Z,65.3
2016-04-11T12:35:19.541Z,65.39
2016-04-11T12:36:19.981Z,64.34
2016-04-11T12:37:19.546Z,64.72
2016-04-11T12:38:19.565Z,64.72
2016-04-11T12:39:19.662Z,64.34
2016-04-11T12:40:19.571Z,65.1
2016-04-11T12:41:19.589Z,64.72
2016-04-11T12:42:19.841Z,64.91
2016-04-11T12:43:19.625Z,64.72
2016-04-11T12:44:19.612Z,64.25
2016-04-11T12:45:19.615Z,64.72
2016-04-11T12:46:19.617Z,64.62
2016-04-11T12:47:19.714Z,64.62
2016-04-11T12:48:19.654Z,64.62
2016-04-11T12:49:19.829Z,64.62
2016-04-11T12:50:19.645Z,64.72
2016-04-11T12:51:19.663Z,65.39
2016-04-11T12:52:19.666Z,64.34
2016-04-11T12:53:19.668Z,64.43
2016-04-11T12:54:19.874Z,64.62
2016-04-11T12:55:19.688Z,64.65
2016-04-11T12:56:19.957Z,64.75
2016-04-11T12:57:19.694Z,64.37
2016-04-11T12:58:19.899Z,64.56
2016-04-11T12:59:19.763Z,63.32
2016-04-11T13:00:19.749Z,64.09
2016-04-11T13:01:19.736Z,64.09
2016-04-11T13:02:19.738Z,63.32
2016-04-11T13:03:19.741Z,63.99
2016-04-11T13:04:19.776Z,63.13
2016-04-11T13:05:20.028Z,62.37
2016-04-11T13:06:20.046Z,62.46
2016-04-11T13:07:19.815Z,63.51
2016-04-11T13:08:19.801Z,63.8
2016-04-11T13:09:20.023Z,64.09
2016-04-11T13:10:20.042Z,63.45
2016-04-11T13:11:19.826Z,64.31
2016-04-11T13:12:19.845Z,63.26
2016-04-11T13:13:19.847Z,62.97